sensor_id;sensor_type;location;lat;lon;timestamp;P1;durP1;ratioP1;P2;durP2;ratioP2
64615;SDS011;51027;42.162;24.754;2024-02-04T00:01:52;8.60;;;3.25;;
64615;SDS011;51027;42.162;24.754;2024-02-04T00:04:18;11.45;;;3.63;;
64615;SDS011;51027;42.162;24.754;2024-02-04T00:06:43;11.13;;;3.70;;
64615;SDS011;51027;42.162;24.754;2024-02-04T00:09:08;9.13;;;3.05;;
64615;SDS011;51027;42.162;24.754;2024-02-04T00:11:34;8.38;;;2.90;;
64615;SDS011;51027;42.162;24.754;2024-02-04T00:14:00;10.38;;;3.47;;
64615;SDS011;51027;42.162;24.754;2024-02-04T00:16:25;11.32;;;3.22;;
64615;SDS011;51027;42.162;24.754;2024-02-04T00:18:51;9.20;;;3.28;;
64615;SDS011;51027;42.162;24.754;2024-02-04T00:21:16;9.88;;;3.03;;
64615;SDS011;51027;42.162;24.754;2024-02-04T00:23:41;14.63;;;3.58;;
64615;SDS011;51027;42.162;24.754;2024-02-04T00:26:07;11.30;;;3.70;;
64615;SDS011;51027;42.162;24.754;2024-02-04T00:28:32;9.18;;;3.58;;
64615;SDS011;51027;42.162;24.754;2024-02-04T00:30:57;8.35;;;3.17;;
64615;SDS011;51027;42.162;24.754;2024-02-04T00:33:24;9.73;;;3.20;;
64615;SDS011;51027;42.162;24.754;2024-02-04T00:35:50;11.20;;;3.80;;
64615;SDS011;51027;42.162;24.754;2024-02-04T00:38:15;9.25;;;3.53;;
64615;SDS011;51027;42.162;24.754;2024-02-04T00:40:41;7.90;;;3.05;;
64615;SDS011;51027;42.162;24.754;2024-02-04T00:43:06;10.10;;;3.47;;
64615;SDS011;51027;42.162;24.754;2024-02-04T00:45:32;9.35;;;3.25;;
64615;SDS011;51027;42.162;24.754;2024-02-04T00:47:57;7.70;;;3.10;;
64615;SDS011;51027;42.162;24.754;2024-02-04T00:50:22;8.60;;;3.20;;
64615;SDS011;51027;42.162;24.754;2024-02-04T00:52:48;7.95;;;2.55;;
64615;SDS011;51027;42.162;24.754;2024-02-04T00:55:13;9.73;;;3.10;;
64615;SDS011;51027;42.162;24.754;2024-02-04T00:57:39;9.25;;;3.05;;
64615;SDS011;51027;42.162;24.754;2024-02-04T01:00:04;8.85;;;2.85;;
64615;SDS011;51027;42.162;24.754;2024-02-04T01:02:30;12.18;;;3.92;;
64615;SDS011;51027;42.162;24.754;2024-02-04T01:04:55;13.10;;;3.65;;
64615;SDS011;51027;42.162;24.754;2024-02-04T01:07:21;9.10;;;3.20;;
64615;SDS011;51027;42.162;24.754;2024-02-04T01:09:47;10.57;;;3.58;;
64615;SDS011;51027;42.162;24.754;2024-02-04T01:12:12;11.18;;;3.45;;
64615;SDS011;51027;42.162;24.754;2024-02-04T01:14:38;11.90;;;3.35;;
64615;SDS011;51027;42.162;24.754;2024-02-04T01:17:03;12.32;;;3.35;;
64615;SDS011;51027;42.162;24.754;2024-02-04T01:19:28;12.00;;;4.13;;
64615;SDS011;51027;42.162;24.754;2024-02-04T01:21:54;10.60;;;3.58;;
64615;SDS011;51027;42.162;24.754;2024-02-04T01:24:19;11.85;;;3.67;;
64615;SDS011;51027;42.162;24.754;2024-02-04T01:26:45;10.52;;;3.80;;
64615;SDS011;51027;42.162;24.754;2024-02-04T01:29:10;12.15;;;3.78;;
64615;SDS011;51027;42.162;24.754;2024-02-04T01:31:35;9.00;;;3.15;;
64615;SDS011;51027;42.162;24.754;2024-02-04T01:34:02;9.50;;;3.25;;
64615;SDS011;51027;42.162;24.754;2024-02-04T01:36:27;12.15;;;4.05;;
64615;SDS011;51027;42.162;24.754;2024-02-04T01:38:52;14.55;;;4.10;;
64615;SDS011;51027;42.162;24.754;2024-02-04T01:41:18;11.40;;;3.60;;
64615;SDS011;51027;42.162;24.754;2024-02-04T01:43:43;8.75;;;3.38;;
64615;SDS011;51027;42.162;24.754;2024-02-04T01:46:09;8.98;;;3.20;;
64615;SDS011;51027;42.162;24.754;2024-02-04T01:48:35;9.40;;;3.40;;
64615;SDS011;51027;42.162;24.754;2024-02-04T01:51:03;9.93;;;3.45;;
64615;SDS011;51027;42.162;24.754;2024-02-04T01:53:30;10.65;;;3.70;;
64615;SDS011;51027;42.162;24.754;2024-02-04T01:55:59;9.00;;;3.07;;
64615;SDS011;51027;42.162;24.754;2024-02-04T01:58:24;11.40;;;3.40;;
64615;SDS011;51027;42.162;24.754;2024-02-04T02:00:50;9.23;;;3.38;;
64615;SDS011;51027;42.162;24.754;2024-02-04T02:03:16;9.23;;;3.15;;
64615;SDS011;51027;42.162;24.754;2024-02-04T02:05:41;10.60;;;3.75;;
64615;SDS011;51027;42.162;24.754;2024-02-04T02:08:07;8.20;;;2.97;;
64615;SDS011;51027;42.162;24.754;2024-02-04T02:10:34;12.77;;;3.53;;
64615;SDS011;51027;42.162;24.754;2024-02-04T02:13:00;7.88;;;3.17;;
64615;SDS011;51027;42.162;24.754;2024-02-04T02:15:34;5.50;;;2.53;;
64615;SDS011;51027;42.162;24.754;2024-02-04T02:18:07;8.27;;;2.40;;
64615;SDS011;51027;42.162;24.754;2024-02-04T02:21:01;13.20;;;3.58;;
64615;SDS011;51027;42.162;24.754;2024-02-04T02:23:53;9.57;;;3.58;;
64615;SDS011;51027;42.162;24.754;2024-02-04T02:26:26;9.32;;;3.42;;
64615;SDS011;51027;42.162;24.754;2024-02-04T02:28:52;10.45;;;3.72;;
64615;SDS011;51027;42.162;24.754;2024-02-04T02:31:17;9.40;;;3.60;;
64615;SDS011;51027;42.162;24.754;2024-02-04T02:33:42;9.30;;;3.35;;
64615;SDS011;51027;42.162;24.754;2024-02-04T02:36:10;10.27;;;3.50;;
64615;SDS011;51027;42.162;24.754;2024-02-04T02:41:35;8.60;;;3.13;;
64615;SDS011;51027;42.162;24.754;2024-02-04T02:44:01;6.82;;;2.70;;
64615;SDS011;51027;42.162;24.754;2024-02-04T02:46:29;9.00;;;3.45;;
64615;SDS011;51027;42.162;24.754;2024-02-04T02:48:58;9.38;;;3.38;;
64615;SDS011;51027;42.162;24.754;2024-02-04T02:51:23;10.52;;;3.90;;
64615;SDS011;51027;42.162;24.754;2024-02-04T02:53:49;10.90;;;3.78;;
64615;SDS011;51027;42.162;24.754;2024-02-04T02:56:14;11.38;;;3.55;;
64615;SDS011;51027;42.162;24.754;2024-02-04T02:58:40;8.55;;;3.17;;
64615;SDS011;51027;42.162;24.754;2024-02-04T03:01:05;9.88;;;3.72;;
64615;SDS011;51027;42.162;24.754;2024-02-04T03:03:30;6.85;;;2.78;;
64615;SDS011;51027;42.162;24.754;2024-02-04T03:05:56;8.23;;;2.80;;
64615;SDS011;51027;42.162;24.754;2024-02-04T03:08:21;11.48;;;3.50;;
64615;SDS011;51027;42.162;24.754;2024-02-04T03:10:47;10.15;;;4.13;;
64615;SDS011;51027;42.162;24.754;2024-02-04T03:13:12;10.02;;;4.00;;
64615;SDS011;51027;42.162;24.754;2024-02-04T03:15:38;8.75;;;3.00;;
64615;SDS011;51027;42.162;24.754;2024-02-04T03:18:06;11.00;;;3.72;;
64615;SDS011;51027;42.162;24.754;2024-02-04T03:20:31;9.77;;;3.33;;
64615;SDS011;51027;42.162;24.754;2024-02-04T03:22:56;12.65;;;3.50;;
64615;SDS011;51027;42.162;24.754;2024-02-04T03:25:22;9.30;;;3.40;;
64615;SDS011;51027;42.162;24.754;2024-02-04T03:27:51;10.05;;;3.17;;
64615;SDS011;51027;42.162;24.754;2024-02-04T03:30:18;8.75;;;3.15;;
64615;SDS011;51027;42.162;24.754;2024-02-04T03:32:43;8.85;;;3.47;;
64615;SDS011;51027;42.162;24.754;2024-02-04T03:35:09;10.25;;;3.55;;
64615;SDS011;51027;42.162;24.754;2024-02-04T03:37:34;10.48;;;3.45;;
64615;SDS011;51027;42.162;24.754;2024-02-04T03:39:59;8.52;;;3.25;;
64615;SDS011;51027;42.162;24.754;2024-02-04T03:42:25;11.68;;;4.03;;
64615;SDS011;51027;42.162;24.754;2024-02-04T03:44:50;10.82;;;3.58;;
64615;SDS011;51027;42.162;24.754;2024-02-04T03:47:16;12.60;;;4.20;;
64615;SDS011;51027;42.162;24.754;2024-02-04T03:49:41;10.35;;;3.58;;
64615;SDS011;51027;42.162;24.754;2024-02-04T03:52:06;8.80;;;3.08;;
64615;SDS011;51027;42.162;24.754;2024-02-04T03:54:32;10.52;;;3.70;;
64615;SDS011;51027;42.162;24.754;2024-02-04T03:56:57;12.63;;;3.97;;
64615;SDS011;51027;42.162;24.754;2024-02-04T03:59:23;13.38;;;4.00;;
64615;SDS011;51027;42.162;24.754;2024-02-04T04:01:48;9.63;;;3.40;;
64615;SDS011;51027;42.162;24.754;2024-02-04T04:04:15;12.95;;;3.60;;
64615;SDS011;51027;42.162;24.754;2024-02-04T04:06:42;11.20;;;3.90;;
64615;SDS011;51027;42.162;24.754;2024-02-04T04:09:08;9.75;;;3.30;;
64615;SDS011;51027;42.162;24.754;2024-02-04T04:11:33;8.30;;;3.25;;
64615;SDS011;51027;42.162;24.754;2024-02-04T04:13:58;13.20;;;3.83;;
64615;SDS011;51027;42.162;24.754;2024-02-04T04:16:24;10.75;;;3.67;;
64615;SDS011;51027;42.162;24.754;2024-02-04T04:18:49;13.43;;;4.00;;
64615;SDS011;51027;42.162;24.754;2024-02-04T04:21:15;12.43;;;4.18;;
64615;SDS011;51027;42.162;24.754;2024-02-04T04:23:41;12.02;;;4.30;;
64615;SDS011;51027;42.162;24.754;2024-02-04T04:26:06;10.40;;;4.00;;
64615;SDS011;51027;42.162;24.754;2024-02-04T04:28:31;11.88;;;4.60;;
64615;SDS011;51027;42.162;24.754;2024-02-04T04:30:59;19.40;;;6.38;;
64615;SDS011;51027;42.162;24.754;2024-02-04T04:33:25;24.77;;;12.82;;
64615;SDS011;51027;42.162;24.754;2024-02-04T04:35:50;39.00;;;24.08;;
64615;SDS011;51027;42.162;24.754;2024-02-04T04:38:15;40.33;;;24.17;;
64615;SDS011;51027;42.162;24.754;2024-02-04T04:40:41;36.50;;;22.67;;
64615;SDS011;51027;42.162;24.754;2024-02-04T04:43:06;33.13;;;19.13;;
64615;SDS011;51027;42.162;24.754;2024-02-04T04:45:32;33.00;;;17.95;;
64615;SDS011;51027;42.162;24.754;2024-02-04T04:47:57;22.83;;;10.45;;
64615;SDS011;51027;42.162;24.754;2024-02-04T04:50:23;23.55;;;12.02;;
64615;SDS011;51027;42.162;24.754;2024-02-04T04:52:48;19.40;;;10.15;;
64615;SDS011;51027;42.162;24.754;2024-02-04T04:55:14;18.42;;;7.72;;
64615;SDS011;51027;42.162;24.754;2024-02-04T04:57:39;16.60;;;6.00;;
64615;SDS011;51027;42.162;24.754;2024-02-04T05:00:05;13.48;;;4.80;;
64615;SDS011;51027;42.162;24.754;2024-02-04T05:02:35;13.68;;;4.18;;
64615;SDS011;51027;42.162;24.754;2024-02-04T05:05:01;10.35;;;3.75;;
64615;SDS011;51027;42.162;24.754;2024-02-04T05:07:27;12.77;;;4.28;;
64615;SDS011;51027;42.162;24.754;2024-02-04T05:09:52;13.65;;;5.13;;
64615;SDS011;51027;42.162;24.754;2024-02-04T05:12:18;15.98;;;5.22;;
64615;SDS011;51027;42.162;24.754;2024-02-04T05:14:43;13.60;;;5.45;;
64615;SDS011;51027;42.162;24.754;2024-02-04T05:17:09;12.40;;;5.15;;
64615;SDS011;51027;42.162;24.754;2024-02-04T05:19:34;11.43;;;4.47;;
64615;SDS011;51027;42.162;24.754;2024-02-04T05:22:00;12.85;;;4.72;;
64615;SDS011;51027;42.162;24.754;2024-02-04T05:24:26;12.05;;;4.00;;
64615;SDS011;51027;42.162;24.754;2024-02-04T05:26:51;9.30;;;3.53;;
64615;SDS011;51027;42.162;24.754;2024-02-04T05:29:17;10.63;;;3.92;;
64615;SDS011;51027;42.162;24.754;2024-02-04T05:31:42;10.05;;;3.85;;
64615;SDS011;51027;42.162;24.754;2024-02-04T05:34:08;14.85;;;4.93;;
64615;SDS011;51027;42.162;24.754;2024-02-04T05:36:34;10.05;;;4.05;;
64615;SDS011;51027;42.162;24.754;2024-02-04T05:39:12;14.57;;;5.03;;
64615;SDS011;51027;42.162;24.754;2024-02-04T05:41:39;14.27;;;4.83;;
64615;SDS011;51027;42.162;24.754;2024-02-04T05:44:05;10.63;;;3.95;;
64615;SDS011;51027;42.162;24.754;2024-02-04T05:46:31;12.35;;;4.03;;
64615;SDS011;51027;42.162;24.754;2024-02-04T05:48:57;7.78;;;3.35;;
64615;SDS011;51027;42.162;24.754;2024-02-04T05:51:23;10.27;;;3.85;;
64615;SDS011;51027;42.162;24.754;2024-02-04T05:53:48;12.65;;;3.97;;
64615;SDS011;51027;42.162;24.754;2024-02-04T05:56:14;11.88;;;3.78;;
64615;SDS011;51027;42.162;24.754;2024-02-04T05:58:39;9.75;;;3.65;;
64615;SDS011;51027;42.162;24.754;2024-02-04T06:01:05;11.25;;;3.70;;
64615;SDS011;51027;42.162;24.754;2024-02-04T06:03:30;12.35;;;3.95;;
64615;SDS011;51027;42.162;24.754;2024-02-04T06:05:56;13.88;;;4.65;;
64615;SDS011;51027;42.162;24.754;2024-02-04T06:08:21;15.15;;;4.65;;
64615;SDS011;51027;42.162;24.754;2024-02-04T06:10:47;13.55;;;4.25;;
64615;SDS011;51027;42.162;24.754;2024-02-04T06:13:12;14.43;;;4.40;;
64615;SDS011;51027;42.162;24.754;2024-02-04T06:15:37;16.13;;;5.35;;
64615;SDS011;51027;42.162;24.754;2024-02-04T06:18:03;13.98;;;5.85;;
64615;SDS011;51027;42.162;24.754;2024-02-04T06:20:29;14.82;;;4.88;;
64615;SDS011;51027;42.162;24.754;2024-02-04T06:22:54;16.95;;;6.20;;
64615;SDS011;51027;42.162;24.754;2024-02-04T06:25:19;15.45;;;5.72;;
64615;SDS011;51027;42.162;24.754;2024-02-04T06:27:45;12.32;;;4.60;;
64615;SDS011;51027;42.162;24.754;2024-02-04T06:30:10;16.05;;;6.00;;
64615;SDS011;51027;42.162;24.754;2024-02-04T06:32:36;15.40;;;5.00;;
64615;SDS011;51027;42.162;24.754;2024-02-04T06:35:02;11.80;;;4.03;;
64615;SDS011;51027;42.162;24.754;2024-02-04T06:37:27;12.98;;;3.83;;
64615;SDS011;51027;42.162;24.754;2024-02-04T06:39:53;11.23;;;3.65;;
64615;SDS011;51027;42.162;24.754;2024-02-04T06:42:18;10.88;;;3.92;;
64615;SDS011;51027;42.162;24.754;2024-02-04T06:44:44;13.38;;;3.47;;
64615;SDS011;51027;42.162;24.754;2024-02-04T06:47:10;7.47;;;2.85;;
64615;SDS011;51027;42.162;24.754;2024-02-04T06:49:38;9.35;;;3.53;;
64615;SDS011;51027;42.162;24.754;2024-02-04T06:52:04;9.18;;;3.47;;
64615;SDS011;51027;42.162;24.754;2024-02-04T06:54:30;8.93;;;3.17;;
64615;SDS011;51027;42.162;24.754;2024-02-04T06:56:55;9.57;;;3.55;;
64615;SDS011;51027;42.162;24.754;2024-02-04T06:59:20;11.38;;;3.65;;
64615;SDS011;51027;42.162;24.754;2024-02-04T07:01:46;9.57;;;3.35;;
64615;SDS011;51027;42.162;24.754;2024-02-04T07:04:12;12.13;;;4.55;;
64615;SDS011;51027;42.162;24.754;2024-02-04T07:06:37;11.88;;;4.55;;
64615;SDS011;51027;42.162;24.754;2024-02-04T07:09:03;13.77;;;4.53;;
64615;SDS011;51027;42.162;24.754;2024-02-04T07:11:28;13.63;;;4.93;;
64615;SDS011;51027;42.162;24.754;2024-02-04T07:13:54;15.98;;;6.35;;
64615;SDS011;51027;42.162;24.754;2024-02-04T07:16:26;15.80;;;6.80;;
64615;SDS011;51027;42.162;24.754;2024-02-04T07:18:52;14.73;;;5.55;;
64615;SDS011;51027;42.162;24.754;2024-02-04T07:21:17;16.00;;;5.82;;
64615;SDS011;51027;42.162;24.754;2024-02-04T07:23:43;14.20;;;5.07;;
64615;SDS011;51027;42.162;24.754;2024-02-04T07:26:08;14.30;;;4.70;;
64615;SDS011;51027;42.162;24.754;2024-02-04T07:28:34;13.85;;;5.15;;
64615;SDS011;51027;42.162;24.754;2024-02-04T07:31:00;11.27;;;4.30;;
64615;SDS011;51027;42.162;24.754;2024-02-04T07:33:25;29.88;;;8.98;;
64615;SDS011;51027;42.162;24.754;2024-02-04T07:35:51;21.35;;;11.35;;
64615;SDS011;51027;42.162;24.754;2024-02-04T07:38:16;13.65;;;4.55;;
64615;SDS011;51027;42.162;24.754;2024-02-04T07:40:42;18.77;;;6.30;;
64615;SDS011;51027;42.162;24.754;2024-02-04T07:43:07;13.70;;;4.40;;
64615;SDS011;51027;42.162;24.754;2024-02-04T07:45:34;36.17;;;17.70;;
64615;SDS011;51027;42.162;24.754;2024-02-04T07:47:59;11.35;;;4.10;;
64615;SDS011;51027;42.162;24.754;2024-02-04T07:50:25;12.18;;;4.22;;
64615;SDS011;51027;42.162;24.754;2024-02-04T07:52:51;10.32;;;3.90;;
64615;SDS011;51027;42.162;24.754;2024-02-04T07:55:17;12.63;;;4.40;;
64615;SDS011;51027;42.162;24.754;2024-02-04T07:57:42;13.57;;;5.10;;
64615;SDS011;51027;42.162;24.754;2024-02-04T08:00:08;14.43;;;5.03;;
64615;SDS011;51027;42.162;24.754;2024-02-04T08:02:36;14.02;;;4.13;;
64615;SDS011;51027;42.162;24.754;2024-02-04T08:05:04;10.65;;;3.90;;
64615;SDS011;51027;42.162;24.754;2024-02-04T08:07:30;10.45;;;3.90;;
64615;SDS011;51027;42.162;24.754;2024-02-04T08:09:55;10.57;;;3.97;;
64615;SDS011;51027;42.162;24.754;2024-02-04T08:12:21;13.90;;;5.05;;
64615;SDS011;51027;42.162;24.754;2024-02-04T08:14:47;10.32;;;4.00;;
64615;SDS011;51027;42.162;24.754;2024-02-04T08:17:12;9.32;;;3.63;;
64615;SDS011;51027;42.162;24.754;2024-02-04T08:19:37;11.98;;;4.22;;
64615;SDS011;51027;42.162;24.754;2024-02-04T08:22:03;9.35;;;3.90;;
64615;SDS011;51027;42.162;24.754;2024-02-04T08:24:29;16.70;;;4.78;;
64615;SDS011;51027;42.162;24.754;2024-02-04T08:26:56;12.48;;;4.15;;
64615;SDS011;51027;42.162;24.754;2024-02-04T08:29:22;13.32;;;4.47;;
64615;SDS011;51027;42.162;24.754;2024-02-04T08:31:48;13.73;;;4.72;;
64615;SDS011;51027;42.162;24.754;2024-02-04T08:34:13;10.40;;;3.80;;
64615;SDS011;51027;42.162;24.754;2024-02-04T08:36:39;9.90;;;3.67;;
64615;SDS011;51027;42.162;24.754;2024-02-04T08:39:04;12.40;;;4.43;;
64615;SDS011;51027;42.162;24.754;2024-02-04T08:41:29;13.00;;;4.53;;
64615;SDS011;51027;42.162;24.754;2024-02-04T08:43:55;13.20;;;4.30;;
64615;SDS011;51027;42.162;24.754;2024-02-04T08:46:20;12.55;;;4.32;;
64615;SDS011;51027;42.162;24.754;2024-02-04T08:48:45;13.13;;;4.80;;
64615;SDS011;51027;42.162;24.754;2024-02-04T08:51:11;15.32;;;5.00;;
64615;SDS011;51027;42.162;24.754;2024-02-04T08:53:41;14.63;;;4.43;;
64615;SDS011;51027;42.162;24.754;2024-02-04T08:56:07;14.30;;;5.07;;
64615;SDS011;51027;42.162;24.754;2024-02-04T08:58:36;14.35;;;4.50;;
64615;SDS011;51027;42.162;24.754;2024-02-04T09:01:02;13.75;;;4.25;;
64615;SDS011;51027;42.162;24.754;2024-02-04T09:03:29;13.75;;;4.53;;
64615;SDS011;51027;42.162;24.754;2024-02-04T09:05:54;12.20;;;4.88;;
64615;SDS011;51027;42.162;24.754;2024-02-04T09:08:20;12.10;;;4.13;;
64615;SDS011;51027;42.162;24.754;2024-02-04T09:10:45;10.60;;;4.40;;
64615;SDS011;51027;42.162;24.754;2024-02-04T09:13:11;12.27;;;4.47;;
64615;SDS011;51027;42.162;24.754;2024-02-04T09:15:36;12.55;;;4.22;;
64615;SDS011;51027;42.162;24.754;2024-02-04T09:18:02;10.73;;;4.20;;
64615;SDS011;51027;42.162;24.754;2024-02-04T09:20:27;11.68;;;3.90;;
64615;SDS011;51027;42.162;24.754;2024-02-04T09:22:53;12.05;;;3.75;;
64615;SDS011;51027;42.162;24.754;2024-02-04T09:25:18;12.88;;;4.47;;
64615;SDS011;51027;42.162;24.754;2024-02-04T09:27:44;12.57;;;4.50;;
64615;SDS011;51027;42.162;24.754;2024-02-04T09:30:09;14.10;;;4.78;;
64615;SDS011;51027;42.162;24.754;2024-02-04T09:32:36;12.48;;;4.28;;
64615;SDS011;51027;42.162;24.754;2024-02-04T09:35:02;8.68;;;3.08;;
64615;SDS011;51027;42.162;24.754;2024-02-04T09:37:28;12.88;;;4.28;;
64615;SDS011;51027;42.162;24.754;2024-02-04T09:39:53;10.70;;;3.88;;
64615;SDS011;51027;42.162;24.754;2024-02-04T09:42:19;12.30;;;4.03;;
64615;SDS011;51027;42.162;24.754;2024-02-04T09:44:49;12.02;;;4.10;;
64615;SDS011;51027;42.162;24.754;2024-02-04T09:47:15;11.10;;;4.20;;
64615;SDS011;51027;42.162;24.754;2024-02-04T09:49:42;11.35;;;3.97;;
64615;SDS011;51027;42.162;24.754;2024-02-04T09:52:08;8.90;;;3.65;;
64615;SDS011;51027;42.162;24.754;2024-02-04T09:54:37;8.93;;;3.33;;
64615;SDS011;51027;42.162;24.754;2024-02-04T09:57:14;10.52;;;3.70;;
64615;SDS011;51027;42.162;24.754;2024-02-04T09:59:41;11.73;;;3.67;;
64615;SDS011;51027;42.162;24.754;2024-02-04T10:02:08;11.50;;;3.85;;
64615;SDS011;51027;42.162;24.754;2024-02-04T10:04:35;12.70;;;4.03;;
64615;SDS011;51027;42.162;24.754;2024-02-04T10:07:00;9.77;;;3.63;;
64615;SDS011;51027;42.162;24.754;2024-02-04T10:09:26;11.63;;;3.85;;
64615;SDS011;51027;42.162;24.754;2024-02-04T10:11:52;8.38;;;3.33;;
64615;SDS011;51027;42.162;24.754;2024-02-04T10:14:17;6.28;;;2.20;;
64615;SDS011;51027;42.162;24.754;2024-02-04T10:16:45;14.45;;;2.80;;
64615;SDS011;51027;42.162;24.754;2024-02-04T10:19:11;7.93;;;2.65;;
64615;SDS011;51027;42.162;24.754;2024-02-04T10:21:36;5.70;;;2.97;;
64615;SDS011;51027;42.162;24.754;2024-02-04T10:24:02;8.65;;;2.83;;
64615;SDS011;51027;42.162;24.754;2024-02-04T10:26:30;8.68;;;2.90;;
64615;SDS011;51027;42.162;24.754;2024-02-04T10:28:59;9.95;;;2.70;;
64615;SDS011;51027;42.162;24.754;2024-02-04T10:31:25;7.10;;;2.65;;
64615;SDS011;51027;42.162;24.754;2024-02-04T10:33:51;8.68;;;2.95;;
64615;SDS011;51027;42.162;24.754;2024-02-04T10:36:17;7.60;;;2.50;;
64615;SDS011;51027;42.162;24.754;2024-02-04T10:38:42;8.50;;;2.67;;
64615;SDS011;51027;42.162;24.754;2024-02-04T10:41:08;6.00;;;2.50;;
64615;SDS011;51027;42.162;24.754;2024-02-04T10:43:40;4.63;;;2.17;;
64615;SDS011;51027;42.162;24.754;2024-02-04T10:48:51;7.43;;;2.50;;
64615;SDS011;51027;42.162;24.754;2024-02-04T10:51:21;6.82;;;2.50;;
64615;SDS011;51027;42.162;24.754;2024-02-04T10:53:51;7.07;;;2.75;;
64615;SDS011;51027;42.162;24.754;2024-02-04T10:56:29;7.95;;;3.10;;
64615;SDS011;51027;42.162;24.754;2024-02-04T10:58:57;7.57;;;2.83;;
64615;SDS011;51027;42.162;24.754;2024-02-04T11:01:25;7.18;;;2.75;;
64615;SDS011;51027;42.162;24.754;2024-02-04T11:03:51;4.65;;;2.20;;
64615;SDS011;51027;42.162;24.754;2024-02-04T11:06:18;6.00;;;2.30;;
64615;SDS011;51027;42.162;24.754;2024-02-04T11:08:46;9.98;;;3.15;;
64615;SDS011;51027;42.162;24.754;2024-02-04T11:11:12;10.45;;;3.17;;
64615;SDS011;51027;42.162;24.754;2024-02-04T11:13:37;10.32;;;3.65;;
64615;SDS011;51027;42.162;24.754;2024-02-04T11:16:11;12.40;;;4.05;;
64615;SDS011;51027;42.162;24.754;2024-02-04T11:24:35;8.55;;;3.40;;
64615;SDS011;51027;42.162;24.754;2024-02-04T11:27:12;8.40;;;3.30;;
64615;SDS011;51027;42.162;24.754;2024-02-04T11:29:39;8.32;;;2.80;;
64615;SDS011;51027;42.162;24.754;2024-02-04T11:32:05;8.63;;;3.15;;
64615;SDS011;51027;42.162;24.754;2024-02-04T11:34:31;10.07;;;3.80;;
64615;SDS011;51027;42.162;24.754;2024-02-04T11:36:58;8.35;;;3.20;;
64615;SDS011;51027;42.162;24.754;2024-02-04T11:39:24;7.80;;;2.80;;
64615;SDS011;51027;42.162;24.754;2024-02-04T11:41:50;7.82;;;2.90;;
64615;SDS011;51027;42.162;24.754;2024-02-04T11:44:23;6.40;;;2.90;;
64615;SDS011;51027;42.162;24.754;2024-02-04T11:46:49;5.75;;;2.53;;
64615;SDS011;51027;42.162;24.754;2024-02-04T11:49:19;5.13;;;2.50;;
64615;SDS011;51027;42.162;24.754;2024-02-04T11:51:45;7.03;;;2.13;;
64615;SDS011;51027;42.162;24.754;2024-02-04T11:54:13;20.63;;;3.40;;
64615;SDS011;51027;42.162;24.754;2024-02-04T11:56:40;8.02;;;2.72;;
64615;SDS011;51027;42.162;24.754;2024-02-04T11:59:06;8.60;;;2.83;;
64615;SDS011;51027;42.162;24.754;2024-02-04T12:01:32;10.30;;;2.63;;
64615;SDS011;51027;42.162;24.754;2024-02-04T12:04:16;5.45;;;2.13;;
64615;SDS011;51027;42.162;24.754;2024-02-04T12:06:42;5.75;;;2.40;;
64615;SDS011;51027;42.162;24.754;2024-02-04T12:09:08;7.88;;;2.83;;
64615;SDS011;51027;42.162;24.754;2024-02-04T12:11:35;10.07;;;2.63;;
64615;SDS011;51027;42.162;24.754;2024-02-04T12:14:02;12.15;;;2.80;;
64615;SDS011;51027;42.162;24.754;2024-02-04T12:16:32;9.43;;;3.17;;
64615;SDS011;51027;42.162;24.754;2024-02-04T12:19:00;4.68;;;2.05;;
64615;SDS011;51027;42.162;24.754;2024-02-04T12:21:25;13.48;;;4.60;;
64615;SDS011;51027;42.162;24.754;2024-02-04T12:23:51;16.17;;;5.82;;
64615;SDS011;51027;42.162;24.754;2024-02-04T12:26:17;7.20;;;3.15;;
64615;SDS011;51027;42.162;24.754;2024-02-04T12:28:43;5.53;;;2.63;;
64615;SDS011;51027;42.162;24.754;2024-02-04T12:31:16;7.20;;;2.45;;
64615;SDS011;51027;42.162;24.754;2024-02-04T12:33:42;8.82;;;2.88;;
64615;SDS011;51027;42.162;24.754;2024-02-04T12:36:08;8.48;;;2.50;;
64615;SDS011;51027;42.162;24.754;2024-02-04T12:38:34;7.80;;;2.67;;
64615;SDS011;51027;42.162;24.754;2024-02-04T12:41:03;7.07;;;2.75;;
64615;SDS011;51027;42.162;24.754;2024-02-04T12:43:28;12.32;;;3.85;;
64615;SDS011;51027;42.162;24.754;2024-02-04T12:45:56;5.32;;;2.67;;
64615;SDS011;51027;42.162;24.754;2024-02-04T12:48:22;9.32;;;3.05;;
64615;SDS011;51027;42.162;24.754;2024-02-04T12:50:51;15.93;;;7.90;;
64615;SDS011;51027;42.162;24.754;2024-02-04T12:53:16;11.88;;;3.00;;
64615;SDS011;51027;42.162;24.754;2024-02-04T12:55:44;8.20;;;2.97;;
64615;SDS011;51027;42.162;24.754;2024-02-04T12:58:12;6.18;;;2.70;;
64615;SDS011;51027;42.162;24.754;2024-02-04T13:00:42;6.70;;;2.22;;
64615;SDS011;51027;42.162;24.754;2024-02-04T13:03:07;6.05;;;2.50;;
64615;SDS011;51027;42.162;24.754;2024-02-04T13:05:34;6.07;;;2.50;;
64615;SDS011;51027;42.162;24.754;2024-02-04T13:08:00;7.72;;;2.70;;
64615;SDS011;51027;42.162;24.754;2024-02-04T13:10:28;5.13;;;2.50;;
64615;SDS011;51027;42.162;24.754;2024-02-04T13:15:32;8.18;;;2.60;;
64615;SDS011;51027;42.162;24.754;2024-02-04T13:18:08;5.13;;;2.20;;
64615;SDS011;51027;42.162;24.754;2024-02-04T13:20:35;7.60;;;2.70;;
64615;SDS011;51027;42.162;24.754;2024-02-04T13:23:01;7.55;;;2.80;;
64615;SDS011;51027;42.162;24.754;2024-02-04T13:25:29;9.20;;;2.83;;
64615;SDS011;51027;42.162;24.754;2024-02-04T13:27:55;7.70;;;2.72;;
64615;SDS011;51027;42.162;24.754;2024-02-04T13:30:21;10.27;;;2.83;;
64615;SDS011;51027;42.162;24.754;2024-02-04T13:32:46;9.30;;;3.70;;
64615;SDS011;51027;42.162;24.754;2024-02-04T13:35:12;13.55;;;4.55;;
64615;SDS011;51027;42.162;24.754;2024-02-04T13:37:41;9.32;;;3.42;;
64615;SDS011;51027;42.162;24.754;2024-02-04T13:40:16;11.45;;;3.80;;
64615;SDS011;51027;42.162;24.754;2024-02-04T13:42:42;6.25;;;2.90;;
64615;SDS011;51027;42.162;24.754;2024-02-04T13:45:09;6.05;;;2.63;;
64615;SDS011;51027;42.162;24.754;2024-02-04T13:47:34;7.30;;;2.60;;
64615;SDS011;51027;42.162;24.754;2024-02-04T13:50:00;9.35;;;3.03;;
64615;SDS011;51027;42.162;24.754;2024-02-04T13:52:26;9.45;;;3.15;;
64615;SDS011;51027;42.162;24.754;2024-02-04T13:54:52;11.48;;;3.50;;
64615;SDS011;51027;42.162;24.754;2024-02-04T13:57:17;8.02;;;2.70;;
64615;SDS011;51027;42.162;24.754;2024-02-04T13:59:46;8.63;;;3.20;;
64615;SDS011;51027;42.162;24.754;2024-02-04T14:02:11;7.10;;;2.78;;
64615;SDS011;51027;42.162;24.754;2024-02-04T14:04:36;9.77;;;3.10;;
64615;SDS011;51027;42.162;24.754;2024-02-04T14:07:02;6.75;;;2.60;;
64615;SDS011;51027;42.162;24.754;2024-02-04T14:09:28;10.73;;;3.40;;
64615;SDS011;51027;42.162;24.754;2024-02-04T14:11:53;11.25;;;4.15;;
64615;SDS011;51027;42.162;24.754;2024-02-04T14:14:20;12.00;;;3.83;;
64615;SDS011;51027;42.162;24.754;2024-02-04T14:16:46;14.45;;;5.97;;
64615;SDS011;51027;42.162;24.754;2024-02-04T14:19:12;12.30;;;4.45;;
64615;SDS011;51027;42.162;24.754;2024-02-04T14:21:38;8.60;;;3.22;;
64615;SDS011;51027;42.162;24.754;2024-02-04T14:24:05;6.88;;;2.65;;
64615;SDS011;51027;42.162;24.754;2024-02-04T14:26:30;18.00;;;4.82;;
64615;SDS011;51027;42.162;24.754;2024-02-04T14:28:56;4.85;;;2.22;;
64615;SDS011;51027;42.162;24.754;2024-02-04T14:31:21;8.23;;;3.17;;
64615;SDS011;51027;42.162;24.754;2024-02-04T14:33:47;8.15;;;3.30;;
64615;SDS011;51027;42.162;24.754;2024-02-04T14:36:12;6.97;;;2.90;;